Starkweather, North Dakota
Current Conditions -  °F | °C
As of 2:35 PM on Friday 28 Nov 2014 (Local Time) from K9D7 Reporting Station
Haze Haze  
Wind Chill: -3°   Ceiling: 800
Heat Index: 12°   Visibility: 6mi
Dew Point:   Wind: 13mph
Humidity: 85%   Direction: 140°SE
Pressure: 29.73"   Gusts: NA
Location:  48.45°N, 98.88°W
Report Text: K9D7 282035Z AUTO 14011KT 6SM BR OVC008 M11/M13 A2973 RMK AO2
Loading
Personal Weather Stations






























Interactive Weather Map New forecast layout! Learn more

10-Day Weather Forecast

Advertisements
Track Severe Weather on mobile